createdAt,value
2023-04-08T00:00:34.831Z,227.64
2023-04-08T00:01:34.974Z,230.09
2023-04-08T00:02:35.050Z,227.37
2023-04-08T00:03:35.231Z,229.42
2023-04-08T00:04:35.319Z,228.25
2023-04-08T00:05:35.194Z,227.52
2023-04-08T00:06:35.285Z,230.28
2023-04-08T00:07:35.354Z,227.93
2023-04-08T00:08:35.435Z,226.57
2023-04-08T00:09:35.495Z,229.52
2023-04-08T00:10:35.575Z,228.66
2023-04-08T00:11:35.659Z,225.42
2023-04-08T00:12:35.715Z,225.30
2023-04-08T00:13:35.791Z,222.17
2023-04-08T00:14:35.851Z,226.38
2023-04-08T00:15:35.919Z,225.62
2023-04-08T00:16:36.066Z,228.11
2023-04-08T00:17:36.111Z,224.92
2023-04-08T00:18:36.139Z,222.41
2023-04-08T00:19:36.358Z,223.07
2023-04-08T00:20:36.346Z,224.17
2023-04-08T00:21:36.384Z,225.63
2023-04-08T00:22:36.452Z,223.47
2023-04-08T00:23:36.530Z,224.41
2023-04-08T00:24:36.623Z,224.51
2023-04-08T00:25:36.672Z,223.85
2023-04-08T00:26:36.758Z,224.33
2023-04-08T00:27:36.870Z,225.16
2023-04-08T00:28:36.894Z,223.02
2023-04-08T00:29:36.975Z,224.25
2023-04-08T00:30:37.107Z,226.33
2023-04-08T00:31:37.105Z,226.63
2023-04-08T00:32:37.229Z,227.74
2023-04-08T00:33:37.270Z,225.22
2023-04-08T00:34:37.327Z,224.92
2023-04-08T00:35:37.445Z,226.29
2023-04-08T00:36:37.498Z,225.65
2023-04-08T00:37:37.547Z,229.13
2023-04-08T00:38:37.647Z,229.56
2023-04-08T00:39:37.716Z,229.51
2023-04-08T00:40:37.774Z,231.61
2023-04-08T00:41:37.865Z,228.52
2023-04-08T00:42:37.934Z,230.61
2023-04-08T00:43:38.000Z,230.94
2023-04-08T00:44:38.097Z,232.51
2023-04-08T00:45:38.173Z,231.84
2023-04-08T00:46:38.286Z,230.52
2023-04-08T00:47:38.337Z,231.06
2023-04-08T00:48:38.384Z,233.72
2023-04-08T00:49:38.448Z,234.14
2023-04-08T00:50:38.464Z,234.30
2023-04-08T00:51:38.475Z,234.22
2023-04-08T00:52:38.468Z,232.18
2023-04-08T00:53:38.467Z,231.41
2023-04-08T00:54:38.485Z,234.21
2023-04-08T00:55:38.494Z,233.55
2023-04-08T00:56:38.505Z,234.84
2023-04-08T00:57:38.506Z,233.20
2023-04-08T00:58:38.578Z,234.28
2023-04-08T00:59:38.647Z,236.31
2023-04-08T01:00:38.724Z,233.27
2023-04-08T01:01:38.911Z,234.54
2023-04-08T01:02:38.981Z,233.18
2023-04-08T01:03:38.969Z,233.32
2023-04-08T01:04:38.894Z,234.33
2023-04-08T01:05:38.895Z,234.44
2023-04-08T01:06:38.958Z,235.93
2023-04-08T01:07:38.921Z,237.13
2023-04-08T01:08:38.939Z,237.31
2023-04-08T01:09:38.934Z,237.52
2023-04-08T01:10:38.974Z,236.17
2023-04-08T01:11:39.050Z,236.99
2023-04-08T01:12:39.118Z,236.97
2023-04-08T01:13:39.198Z,236.75
2023-04-08T01:14:39.282Z,241.25
2023-04-08T01:15:39.394Z,236.95
2023-04-08T01:16:39.423Z,235.02
2023-04-08T01:17:39.528Z,233.52
2023-04-08T01:18:39.573Z,234.21
2023-04-08T01:19:39.651Z,231.00
2023-04-08T01:20:39.742Z,230.78
2023-04-08T01:21:39.810Z,229.60
2023-04-08T01:22:39.875Z,229.77
2023-04-08T01:23:39.946Z,232.77
2023-04-08T01:24:40.034Z,232.75
2023-04-08T01:25:40.119Z,234.18
2023-04-08T01:26:40.170Z,234.33
2023-04-08T01:27:40.261Z,235.52
2023-04-08T01:28:40.336Z,234.30
2023-04-08T01:29:40.398Z,235.21
2023-04-08T01:30:40.482Z,235.64
2023-04-08T01:31:40.574Z,233.81
2023-04-08T01:32:40.626Z,237.11
2023-04-08T01:33:40.673Z,236.76
2023-04-08T01:34:40.760Z,236.77
2023-04-08T01:35:40.926Z,236.95
2023-04-08T01:36:40.884Z,236.42
2023-04-08T01:37:40.957Z,237.12
2023-04-08T01:38:41.038Z,232.70
2023-04-08T01:39:41.092Z,233.57
2023-04-08T01:40:41.188Z,235.36
2023-04-08T01:41:41.265Z,235.19
2023-04-08T01:42:41.389Z,237.14
2023-04-08T01:43:41.419Z,239.85
2023-04-08T01:44:41.485Z,238.18
2023-04-08T01:45:41.555Z,239.09
2023-04-08T01:46:41.673Z,239.71
2023-04-08T01:47:41.756Z,240.04
2023-04-08T01:48:41.788Z,238.37
2023-04-08T01:49:41.877Z,238.03
2023-04-08T01:50:41.938Z,239.72
2023-04-08T01:51:41.985Z,238.84
2023-04-08T01:52:42.078Z,239.67
2023-04-08T01:53:42.142Z,241.33
2023-04-08T01:54:42.216Z,239.40
2023-04-08T01:55:42.284Z,238.88
2023-04-08T01:56:42.426Z,237.94
2023-04-08T01:57:42.453Z,237.49
2023-04-08T01:58:42.530Z,238.43
2023-04-08T01:59:42.595Z,236.58
2023-04-08T02:00:42.678Z,234.97
2023-04-08T02:01:42.817Z,233.98
2023-04-08T02:02:43.022Z,234.95
2023-04-08T02:03:42.952Z,234.88
2023-04-08T02:04:43.089Z,230.53
2023-04-08T02:05:43.053Z,232.88
2023-04-08T02:06:43.120Z,227.62
2023-04-08T02:07:43.201Z,230.46
2023-04-08T02:08:43.291Z,230.55
2023-04-08T02:09:43.378Z,234.12
2023-04-08T02:10:43.373Z,231.61
2023-04-08T02:11:43.404Z,231.47
2023-04-08T02:12:43.408Z,232.70
2023-04-08T02:13:43.404Z,229.64
2023-04-08T02:14:43.407Z,233.77
2023-04-08T02:15:43.409Z,234.28
2023-04-08T02:16:43.462Z,234.33
2023-04-08T02:17:43.501Z,234.24
2023-04-08T02:18:43.453Z,234.85
2023-04-08T02:19:43.448Z,235.28
2023-04-08T02:20:43.452Z,235.93
2023-04-08T02:21:43.450Z,238.15
2023-04-08T02:22:43.457Z,236.50
2023-04-08T02:23:43.475Z,235.24
2023-04-08T02:24:43.536Z,232.88
2023-04-08T02:25:43.622Z,231.18
2023-04-08T02:26:43.685Z,227.65
2023-04-08T02:27:43.762Z,226.38
2023-04-08T02:28:43.827Z,228.10
2023-04-08T02:29:43.913Z,226.37
2023-04-08T02:30:43.983Z,223.51
2023-04-08T02:31:44.069Z,225.28
2023-04-08T02:32:44.135Z,226.27
2023-04-08T02:33:44.199Z,226.61
2023-04-08T02:34:44.262Z,228.96
2023-04-08T02:35:44.358Z,226.56
2023-04-08T02:36:44.368Z,225.88
2023-04-08T02:37:44.436Z,227.49
2023-04-08T02:38:44.482Z,228.46
2023-04-08T02:39:44.546Z,227.19
2023-04-08T02:40:44.672Z,229.88
2023-04-08T02:41:44.690Z,228.18
2023-04-08T02:42:44.781Z,230.02
2023-04-08T02:43:44.834Z,230.03
2023-04-08T02:44:44.902Z,229.73
2023-04-08T02:45:44.972Z,231.31
2023-04-08T02:46:45.025Z,233.18
2023-04-08T02:47:45.113Z,231.38
2023-04-08T02:48:45.170Z,232.97
2023-04-08T02:49:45.238Z,232.70
2023-04-08T02:50:45.300Z,235.42
2023-04-08T02:51:45.402Z,230.98
2023-04-08T02:52:45.416Z,233.13
2023-04-08T02:53:45.480Z,234.67
2023-04-08T02:54:45.531Z,235.48
2023-04-08T02:55:45.594Z,235.57
2023-04-08T02:56:45.594Z,235.66
2023-04-08T02:57:45.598Z,235.84
2023-04-08T02:58:45.590Z,236.74
2023-04-08T02:59:45.599Z,234.32
2023-04-08T03:00:45.625Z,234.49
2023-04-08T03:01:45.657Z,231.83
2023-04-08T03:02:45.723Z,231.22
2023-04-08T03:03:45.707Z,229.92
2023-04-08T03:04:45.697Z,231.69
2023-04-08T03:05:45.776Z,234.58
2023-04-08T03:06:45.847Z,232.08
2023-04-08T03:07:45.960Z,230.99
2023-04-08T03:08:45.995Z,228.54
2023-04-08T03:09:46.101Z,230.05
2023-04-08T03:10:46.149Z,231.09
2023-04-08T03:11:46.245Z,227.04
2023-04-08T03:12:46.320Z,232.46
2023-04-08T03:13:46.377Z,231.62
2023-04-08T03:14:46.440Z,230.44
2023-04-08T03:15:46.516Z,231.65
2023-04-08T03:16:46.681Z,235.22
2023-04-08T03:17:46.725Z,232.89
2023-04-08T03:18:46.758Z,231.11
2023-04-08T03:19:46.832Z,229.02
2023-04-08T03:20:46.942Z,231.12
2023-04-08T03:21:46.995Z,228.10
2023-04-08T03:22:47.062Z,226.33
2023-04-08T03:23:47.163Z,230.30
2023-04-08T03:24:47.204Z,228.87
2023-04-08T03:25:47.284Z,231.54
2023-04-08T03:26:47.353Z,228.80
2023-04-08T03:27:47.459Z,227.80
2023-04-08T03:28:47.714Z,225.46
2023-04-08T03:29:47.587Z,226.33
2023-04-08T03:30:47.659Z,222.86
2023-04-08T03:31:47.745Z,227.13
2023-04-08T03:32:47.889Z,228.09
2023-04-08T03:33:47.873Z,226.77
2023-04-08T03:34:47.948Z,226.54
2023-04-08T03:35:48.050Z,227.03
2023-04-08T03:36:48.075Z,226.34
2023-04-08T03:37:48.189Z,222.56
2023-04-08T03:38:48.436Z,225.52
2023-04-08T03:39:48.319Z,225.74
2023-04-08T03:40:48.394Z,224.50
2023-04-08T03:41:48.489Z,225.81
2023-04-08T03:42:48.565Z,225.25
2023-04-08T03:43:48.640Z,223.91
2023-04-08T03:44:48.706Z,224.44
2023-04-08T03:45:48.787Z,223.08
2023-04-08T03:46:48.883Z,222.37
2023-04-08T03:47:48.991Z,222.74
2023-04-08T03:48:49.189Z,220.26
2023-04-08T03:49:49.117Z,220.38
2023-04-08T03:50:49.187Z,221.22
2023-04-08T03:51:49.263Z,220.78
2023-04-08T03:52:49.270Z,221.01
2023-04-08T03:53:49.261Z,221.36
2023-04-08T03:54:49.271Z,220.92
2023-04-08T03:55:49.279Z,220.87
2023-04-08T03:56:49.302Z,220.95
2023-04-08T03:57:49.293Z,224.20
2023-04-08T03:58:49.471Z,219.89
2023-04-08T03:59:49.381Z,219.63
2023-04-08T04:00:49.408Z,215.83
2023-04-08T04:01:49.508Z,214.26
2023-04-08T04:02:49.749Z,214.21
2023-04-08T04:03:49.745Z,214.97
2023-04-08T04:04:49.777Z,211.41
2023-04-08T04:05:49.793Z,211.07
2023-04-08T04:06:49.863Z,211.23
2023-04-08T04:07:49.970Z,208.61
2023-04-08T04:08:50.149Z,210.67
2023-04-08T04:09:50.109Z,209.14
2023-04-08T04:10:50.191Z,210.42
2023-04-08T04:11:50.286Z,208.99
2023-04-08T04:12:50.357Z,212.92
2023-04-08T04:13:50.432Z,212.80
2023-04-08T04:14:50.494Z,217.05
2023-04-08T04:15:50.659Z,216.34
2023-04-08T04:16:50.654Z,214.58
2023-04-08T04:17:50.810Z,214.46
2023-04-08T04:18:51.035Z,215.51
2023-04-08T04:19:50.865Z,211.48
2023-04-08T04:20:50.943Z,209.15
2023-04-08T04:21:51.005Z,204.94
2023-04-08T04:22:51.094Z,208.06
2023-04-08T04:23:51.169Z,208.45
2023-04-08T04:24:51.275Z,208.96
2023-04-08T04:25:51.331Z,207.63
2023-04-08T04:26:51.396Z,207.06
2023-04-08T04:27:51.483Z,211.57
2023-04-08T04:28:51.747Z,210.66
2023-04-08T04:29:51.641Z,211.31
2023-04-08T04:30:51.722Z,213.82
2023-04-08T04:31:51.781Z,214.10
2023-04-08T04:32:51.889Z,213.55
2023-04-08T04:33:51.927Z,212.74
2023-04-08T04:34:51.987Z,208.82
2023-04-08T04:35:52.101Z,209.04
2023-04-08T04:36:52.014Z,209.61
2023-04-08T04:37:52.027Z,210.59
2023-04-08T04:38:52.361Z,211.38
2023-04-08T04:39:52.033Z,209.70
2023-04-08T04:40:52.030Z,211.58
2023-04-08T04:41:52.046Z,213.05
2023-04-08T04:42:52.082Z,215.28
2023-04-08T04:43:52.106Z,213.88
2023-04-08T04:44:52.104Z,214.06
2023-04-08T04:45:52.138Z,214.12
2023-04-08T04:46:52.179Z,214.75
2023-04-08T04:47:52.176Z,214.45
2023-04-08T04:48:52.349Z,211.42
2023-04-08T04:49:52.148Z,214.88
2023-04-08T04:50:52.148Z,212.74
2023-04-08T04:51:52.183Z,213.66
2023-04-08T04:52:52.253Z,211.87
2023-04-08T04:53:52.303Z,213.90
2023-04-08T04:54:52.384Z,215.38
2023-04-08T04:55:52.470Z,215.59
2023-04-08T04:56:52.567Z,215.69
2023-04-08T04:57:52.636Z,219.60
2023-04-08T04:58:52.745Z,215.42
2023-04-08T04:59:52.786Z,213.58
2023-04-08T05:00:52.858Z,215.76
2023-04-08T05:01:53.022Z,219.91
2023-04-08T05:02:53.294Z,219.79
2023-04-08T05:03:53.424Z,220.06
2023-04-08T05:04:53.197Z,221.08
2023-04-08T05:05:53.232Z,218.93
2023-04-08T05:06:53.339Z,218.34
2023-04-08T05:07:53.400Z,214.80
2023-04-08T05:08:53.490Z,215.27
2023-04-08T05:09:53.559Z,213.74
2023-04-08T05:10:53.625Z,215.49
2023-04-08T05:11:53.716Z,212.76
2023-04-08T05:12:53.792Z,213.77
2023-04-08T05:13:53.875Z,211.54
2023-04-08T05:14:53.958Z,212.04
2023-04-08T05:15:54.090Z,214.20
2023-04-08T05:16:54.115Z,212.49
2023-04-08T05:17:54.200Z,212.87
2023-04-08T05:18:54.227Z,213.01
2023-04-08T05:19:54.207Z,213.23
2023-04-08T05:20:54.220Z,213.15
2023-04-08T05:21:54.221Z,211.15
2023-04-08T05:22:54.228Z,213.06
2023-04-08T05:23:54.260Z,213.46
2023-04-08T05:24:54.258Z,213.59
2023-04-08T05:25:54.289Z,213.72
2023-04-08T05:26:54.270Z,211.62
2023-04-08T05:27:54.307Z,210.08
2023-04-08T05:28:54.307Z,208.66
2023-04-08T05:29:54.348Z,212.74
2023-04-08T05:30:54.331Z,212.52
2023-04-08T05:31:54.422Z,212.70
2023-04-08T05:32:54.462Z,215.90
2023-04-08T05:33:54.535Z,217.23
2023-04-08T05:34:54.591Z,215.50
2023-04-08T05:35:54.729Z,213.82
2023-04-08T05:36:54.776Z,215.56
2023-04-08T05:37:54.840Z,215.96
2023-04-08T05:38:54.925Z,217.50
2023-04-08T05:39:54.994Z,216.52
2023-04-08T05:40:55.059Z,213.23
2023-04-08T05:41:55.139Z,215.92
2023-04-08T05:42:55.220Z,215.33
2023-04-08T05:43:55.324Z,212.80
2023-04-08T05:44:55.368Z,213.36
2023-04-08T05:45:55.436Z,212.98
2023-04-08T05:46:55.549Z,213.07
2023-04-08T05:47:55.632Z,214.15
2023-04-08T05:48:55.655Z,215.00
2023-04-08T05:49:55.714Z,212.36
2023-04-08T05:50:55.801Z,213.41
2023-04-08T05:51:55.882Z,210.88
2023-04-08T05:52:55.923Z,210.55
2023-04-08T05:53:56.006Z,210.92
2023-04-08T05:54:56.062Z,210.10
2023-04-08T05:55:56.102Z,209.23
2023-04-08T05:56:56.173Z,207.46
2023-04-08T05:57:56.246Z,208.47
2023-04-08T05:58:56.321Z,209.67
2023-04-08T05:59:56.404Z,208.36
2023-04-08T06:00:56.472Z,210.19
2023-04-08T06:01:56.612Z,210.00
2023-04-08T06:02:56.767Z,210.57
2023-04-08T06:03:57.009Z,209.39
2023-04-08T06:04:56.915Z,208.84
2023-04-08T06:05:56.877Z,207.39
2023-04-08T06:06:56.924Z,209.12
2023-04-08T06:07:57.027Z,209.27
2023-04-08T06:08:57.103Z,208.65
2023-04-08T06:09:57.106Z,208.84
2023-04-08T06:10:57.121Z,209.02
2023-04-08T06:11:57.128Z,209.07
2023-04-08T06:12:57.137Z,207.25
2023-04-08T06:13:57.168Z,207.66
2023-04-08T06:14:57.168Z,206.82
2023-04-08T06:15:57.171Z,207.15
2023-04-08T06:16:57.468Z,207.59
2023-04-08T06:17:57.269Z,207.10
2023-04-08T06:18:57.295Z,205.69
2023-04-08T06:19:57.359Z,205.50
2023-04-08T06:20:57.432Z,206.88
2023-04-08T06:21:57.505Z,207.69
2023-04-08T06:22:57.558Z,204.28
2023-04-08T06:23:57.623Z,203.16
2023-04-08T06:24:57.701Z,205.91
2023-04-08T06:25:57.785Z,203.54
2023-04-08T06:26:57.866Z,202.02
2023-04-08T06:27:57.962Z,203.00
2023-04-08T06:28:58.045Z,203.07
2023-04-08T06:29:58.098Z,204.21
2023-04-08T06:30:58.221Z,206.22
2023-04-08T06:31:58.336Z,203.32
2023-04-08T06:32:58.347Z,206.89
2023-04-08T06:33:58.401Z,205.40
2023-04-08T06:34:58.482Z,206.32
2023-04-08T06:35:58.639Z,204.23
2023-04-08T06:36:58.669Z,205.23
2023-04-08T06:37:58.713Z,203.61
2023-04-08T06:38:58.794Z,204.22
2023-04-08T06:39:58.880Z,205.26
2023-04-08T06:40:58.920Z,204.65
2023-04-08T06:41:59.002Z,207.02
2023-04-08T06:42:59.053Z,206.08
2023-04-08T06:43:59.127Z,206.29
2023-04-08T06:44:59.223Z,207.10
2023-04-08T06:45:59.464Z,206.09
2023-04-08T06:46:59.370Z,205.97
2023-04-08T06:47:59.451Z,206.05
2023-04-08T06:48:59.527Z,206.45
2023-04-08T06:49:59.610Z,205.41
2023-04-08T06:50:59.689Z,205.69
2023-04-08T06:51:59.785Z,208.11
2023-04-08T06:52:59.852Z,203.61
2023-04-08T06:53:59.940Z,206.24
2023-04-08T06:55:00.029Z,207.28
2023-04-08T06:56:00.121Z,210.18
2023-04-08T06:57:00.164Z,210.92
2023-04-08T06:58:00.232Z,206.43
2023-04-08T06:59:00.248Z,206.58
2023-04-08T07:00:00.282Z,206.55
2023-04-08T07:01:00.281Z,207.50
2023-04-08T07:02:00.445Z,205.96
2023-04-08T07:03:00.328Z,207.44
2023-04-08T07:04:00.356Z,208.72
2023-04-08T07:05:00.316Z,211.05
2023-04-08T07:06:00.322Z,210.18
2023-04-08T07:07:00.380Z,209.68
2023-04-08T07:08:00.488Z,211.74
2023-04-08T07:09:00.488Z,211.92
2023-04-08T07:10:00.497Z,212.00
2023-04-08T07:11:00.496Z,212.88
2023-04-08T07:12:00.515Z,212.20
2023-04-08T07:13:00.543Z,212.94
2023-04-08T07:14:00.551Z,211.65
2023-04-08T07:15:00.571Z,214.07
2023-04-08T07:16:00.601Z,214.83
2023-04-08T07:17:00.749Z,214.62
2023-04-08T07:18:00.786Z,216.93
2023-04-08T07:19:00.826Z,217.79
2023-04-08T07:20:00.922Z,219.05
2023-04-08T07:21:00.995Z,218.05
2023-04-08T07:22:01.072Z,221.07
2023-04-08T07:23:01.155Z,220.69
2023-04-08T07:24:01.243Z,223.63
2023-04-08T07:25:01.332Z,219.18
2023-04-08T07:26:01.404Z,221.11
2023-04-08T07:27:01.471Z,222.22
2023-04-08T07:28:01.552Z,220.93
2023-04-08T07:29:01.574Z,221.06
2023-04-08T07:30:01.582Z,221.17
2023-04-08T07:31:01.660Z,221.41
2023-04-08T07:32:01.584Z,221.42
2023-04-08T07:33:01.641Z,225.01
2023-04-08T07:34:01.604Z,224.82
2023-04-08T07:35:01.606Z,223.45
2023-04-08T07:36:01.634Z,220.78
2023-04-08T07:37:01.695Z,224.27
2023-04-08T07:38:01.775Z,221.94
2023-04-08T07:39:01.871Z,224.55
2023-04-08T07:40:01.959Z,222.96
2023-04-08T07:41:02.002Z,227.82
2023-04-08T07:42:02.084Z,227.84
2023-04-08T07:43:02.143Z,226.38
2023-04-08T07:44:02.228Z,230.15
2023-04-08T07:45:02.356Z,228.48
2023-04-08T07:46:02.437Z,228.64
2023-04-08T07:47:02.467Z,230.59
2023-04-08T07:48:02.561Z,233.54
2023-04-08T07:49:02.611Z,231.11
2023-04-08T07:50:02.702Z,231.57
2023-04-08T07:51:08.344Z,234.40
2023-04-08T07:52:03.774Z,234.51
2023-04-08T07:53:02.777Z,234.13
2023-04-08T07:54:02.780Z,233.01
2023-04-08T07:55:02.794Z,234.00
2023-04-08T07:56:02.800Z,233.57
2023-04-08T07:57:02.872Z,233.93
2023-04-08T07:58:02.826Z,235.12
2023-04-08T07:59:02.823Z,235.71
2023-04-08T08:00:02.908Z,235.96
2023-04-08T08:01:02.965Z,234.20
2023-04-08T08:02:03.179Z,235.07
2023-04-08T08:03:03.352Z,234.47
2023-04-08T08:04:03.274Z,233.63
2023-04-08T08:05:03.236Z,233.40
2023-04-08T08:06:03.276Z,233.12
2023-04-08T08:07:03.289Z,233.30
2023-04-08T08:08:03.293Z,233.35
2023-04-08T08:09:03.344Z,233.13
2023-04-08T08:10:03.318Z,232.19
2023-04-08T08:11:03.297Z,233.75
2023-04-08T08:12:03.317Z,233.64
2023-04-08T08:13:03.317Z,235.56
2023-04-08T08:14:03.330Z,231.38
2023-04-08T08:15:03.345Z,233.60
2023-04-08T08:16:03.411Z,234.58
2023-04-08T08:17:03.432Z,231.07
2023-04-08T08:18:03.520Z,234.31
2023-04-08T08:19:03.571Z,233.28
2023-04-08T08:20:03.643Z,232.01
2023-04-08T08:21:03.718Z,234.92
2023-04-08T08:22:03.793Z,232.94
2023-04-08T08:23:03.831Z,233.66
2023-04-08T08:24:03.890Z,232.53
2023-04-08T08:25:03.961Z,235.31
2023-04-08T08:26:04.032Z,235.00
2023-04-08T08:27:04.094Z,233.45
2023-04-08T08:28:04.169Z,236.15
2023-04-08T08:29:04.229Z,233.55
2023-04-08T08:30:04.310Z,238.39
2023-04-08T08:31:04.365Z,233.70
2023-04-08T08:32:07.012Z,233.84
2023-04-08T08:33:04.732Z,237.96
2023-04-08T08:35:23.765Z,25.00
2023-04-08T08:36:23.767Z,25.00
2023-04-08T08:37:23.728Z,25.00
2023-04-08T08:38:23.723Z,25.00
2023-04-08T08:39:23.708Z,25.00
2023-04-08T08:40:23.708Z,26.62
2023-04-08T08:41:23.723Z,25.40
2023-04-08T08:42:23.698Z,25.30
2023-04-08T08:43:23.681Z,28.09
2023-04-08T08:44:23.666Z,25.95
2023-04-08T08:45:23.696Z,27.61
2023-04-08T08:46:23.639Z,28.78
2023-04-08T08:47:23.686Z,25.12
2023-04-08T08:48:23.628Z,25.38
2023-04-08T08:49:23.608Z,25.49
2023-04-08T08:50:23.608Z,26.18
2023-04-08T08:51:23.607Z,24.85
2023-04-08T08:52:23.581Z,26.90
2023-04-08T08:53:23.569Z,26.72
2023-04-08T08:54:23.561Z,28.70
2023-04-08T08:55:41.508Z,27.50
2023-04-08T08:56:24.549Z,27.67
2023-04-08T08:57:23.554Z,28.02
2023-04-08T08:58:23.520Z,29.59
2023-04-08T08:59:23.505Z,29.67
2023-04-08T09:00:23.490Z,30.17
2023-04-08T09:01:23.505Z,30.76
2023-04-08T09:02:23.516Z,30.74
2023-04-08T09:03:23.928Z,29.58
2023-04-08T09:04:23.657Z,31.08
2023-04-08T09:05:23.575Z,29.80
2023-04-08T09:06:23.512Z,28.30
2023-04-08T09:07:23.594Z,30.87
2023-04-08T09:08:23.580Z,30.02
2023-04-08T09:09:23.620Z,33.26
2023-04-08T09:10:23.668Z,35.13
2023-04-08T09:11:23.739Z,29.91
2023-04-08T09:12:23.742Z,37.51
2023-04-08T09:13:23.793Z,38.41
2023-04-08T09:14:23.829Z,39.70
2023-04-08T09:15:23.841Z,38.50
2023-04-08T09:16:24.006Z,38.75
2023-04-08T09:17:23.937Z,34.10
2023-04-08T09:18:23.971Z,36.77
2023-04-08T09:19:24.038Z,30.57
2023-04-08T09:20:24.037Z,36.84
2023-04-08T09:21:24.111Z,30.28
2023-04-08T09:22:24.114Z,33.54
2023-04-08T09:23:24.151Z,37.50
2023-04-08T09:24:24.186Z,31.15
2023-04-08T09:25:24.234Z,34.08
2023-04-08T09:26:24.294Z,32.57
2023-04-08T09:27:24.283Z,33.05
2023-04-08T09:28:24.296Z,35.11
2023-04-08T09:29:26.426Z,28.98
2023-04-08T09:30:24.327Z,32.72
2023-04-08T09:31:24.336Z,38.13
2023-04-08T09:32:24.382Z,31.52
2023-04-08T09:33:24.283Z,28.61
2023-04-08T09:34:24.272Z,28.93
2023-04-08T09:35:24.316Z,30.00
2023-04-08T09:36:24.283Z,31.13
2023-04-08T09:37:24.242Z,31.70
2023-04-08T09:38:24.240Z,33.32
2023-04-08T09:39:24.243Z,28.82
2023-04-08T09:40:24.182Z,28.63
2023-04-08T09:41:24.183Z,30.40
2023-04-08T09:42:24.184Z,31.47
2023-04-08T09:43:24.151Z,37.34
2023-04-08T09:44:24.149Z,28.97
2023-04-08T09:45:24.158Z,28.94
2023-04-08T09:46:24.149Z,29.12
2023-04-08T09:47:24.160Z,31.62
2023-04-08T09:48:24.087Z,27.72
2023-04-08T09:49:24.084Z,27.59
2023-04-08T09:50:24.069Z,31.73
2023-04-08T09:51:24.082Z,28.45
2023-04-08T09:52:24.062Z,32.93
2023-04-08T09:53:24.044Z,36.12
2023-04-08T09:54:24.032Z,26.52
2023-04-08T09:55:24.071Z,33.76
2023-04-08T09:56:24.031Z,32.17
2023-04-08T09:57:24.006Z,30.97
2023-04-08T09:58:24.040Z,26.54
2023-04-08T09:59:23.997Z,32.60
2023-04-08T10:00:24.007Z,29.67
2023-04-08T10:01:24.102Z,33.68
2023-04-08T10:02:24.178Z,34.30
2023-04-08T10:03:24.263Z,31.23
2023-04-08T10:04:24.133Z,34.50
2023-04-08T10:05:24.103Z,30.43
2023-04-08T10:06:24.113Z,25.96
2023-04-08T10:07:24.154Z,35.26
2023-04-08T10:08:24.161Z,34.35
2023-04-08T10:09:24.193Z,25.00
2023-04-08T10:10:24.193Z,27.38
2023-04-08T10:11:24.235Z,35.15
2023-04-08T10:12:24.232Z,32.88
2023-04-08T10:13:24.267Z,36.81
2023-04-08T10:14:24.267Z,28.28
2023-04-08T10:15:24.272Z,32.82
2023-04-08T10:16:24.355Z,30.34
2023-04-08T10:17:24.369Z,24.17
2023-04-08T10:18:24.337Z,26.32
2023-04-08T10:19:24.378Z,33.02
2023-04-08T10:20:24.383Z,37.02
2023-04-08T10:21:24.419Z,32.22
2023-04-08T10:22:24.423Z,31.41
2023-04-08T10:23:24.411Z,27.89
2023-04-08T10:24:24.455Z,33.54
2023-04-08T10:25:24.450Z,29.32
2023-04-08T10:26:24.506Z,32.22
2023-04-08T10:27:24.527Z,28.42
2023-04-08T10:28:24.513Z,29.62
2023-04-08T10:29:24.524Z,36.70
2023-04-08T10:30:24.533Z,41.11
2023-04-08T10:31:24.610Z,38.08
2023-04-08T10:32:24.594Z,41.01
2023-04-08T10:33:24.612Z,36.58
2023-04-08T10:34:24.606Z,41.48
2023-04-08T10:35:24.635Z,36.67
2023-04-08T10:36:24.645Z,33.72
2023-04-08T10:37:24.674Z,32.42
2023-04-08T10:38:24.681Z,36.53
2023-04-08T10:39:24.679Z,33.37
2023-04-08T10:40:24.684Z,37.72
2023-04-08T10:41:24.706Z,31.92
2023-04-08T10:42:24.724Z,33.83
2023-04-08T10:43:24.742Z,33.41
2023-04-08T10:44:24.753Z,36.97
2023-04-08T10:45:24.823Z,35.86
2023-04-08T10:46:24.819Z,37.93
2023-04-08T10:47:24.858Z,36.60
2023-04-08T10:48:24.971Z,37.57
2023-04-08T10:49:24.881Z,31.41
2023-04-08T10:50:24.856Z,31.16
2023-04-08T10:51:24.895Z,31.85
2023-04-08T10:52:24.907Z,26.00
2023-04-08T10:53:24.906Z,30.45
2023-04-08T10:54:24.910Z,28.23
2023-04-08T10:55:24.958Z,29.75
2023-04-08T10:56:24.966Z,27.62
2023-04-08T10:57:24.993Z,30.17
2023-04-08T10:58:25.002Z,30.95
2023-04-08T10:59:25.013Z,28.88
2023-04-08T11:00:25.025Z,27.86
2023-04-08T11:01:25.065Z,26.09
2023-04-08T11:02:25.213Z,30.35
2023-04-08T11:03:25.228Z,35.91
2023-04-08T11:04:25.286Z,36.87
2023-04-08T11:05:25.124Z,35.77
2023-04-08T11:06:25.140Z,36.00
2023-04-08T11:07:25.171Z,30.73
2023-04-08T11:08:25.173Z,30.36
2023-04-08T11:09:25.208Z,28.03
2023-04-08T11:10:25.235Z,30.88
2023-04-08T11:11:25.233Z,33.32
2023-04-08T11:12:25.267Z,32.29
2023-04-08T11:13:25.287Z,28.06
2023-04-08T11:14:25.314Z,32.33
2023-04-08T11:15:25.364Z,37.07
2023-04-08T11:16:25.354Z,32.93
2023-04-08T11:17:25.434Z,31.54
2023-04-08T11:18:25.431Z,25.00
2023-04-08T11:19:25.417Z,29.41
2023-04-08T11:20:25.449Z,29.74
2023-04-08T11:21:25.488Z,34.25
2023-04-08T11:22:25.509Z,27.92
2023-04-08T11:23:25.531Z,29.56
2023-04-08T11:24:25.556Z,26.78
2023-04-08T11:25:25.569Z,29.28
2023-04-08T11:26:25.595Z,30.52
2023-04-08T11:27:25.643Z,33.59
2023-04-08T11:28:25.668Z,29.40
2023-04-08T11:29:25.694Z,32.42
2023-04-08T11:30:25.712Z,28.75
2023-04-08T11:31:25.782Z,33.05
2023-04-08T11:32:25.814Z,29.10
2023-04-08T11:33:25.776Z,31.85
2023-04-08T11:34:25.804Z,31.32
2023-04-08T11:35:25.836Z,36.41
2023-04-08T11:36:25.889Z,25.00
2023-04-08T11:37:26.566Z,26.78
2023-04-08T11:38:25.912Z,29.23
2023-04-08T11:39:25.924Z,29.40
2023-04-08T11:40:25.973Z,32.02
2023-04-08T11:41:26.031Z,29.88
2023-04-08T11:42:26.041Z,30.88
2023-04-08T11:43:26.040Z,33.75
2023-04-08T11:44:26.073Z,34.17
2023-04-08T11:45:26.105Z,27.07
2023-04-08T11:46:26.318Z,33.30
2023-04-08T11:47:26.204Z,29.26
2023-04-08T11:48:26.184Z,31.99
2023-04-08T11:49:26.218Z,29.31
2023-04-08T11:50:26.264Z,30.45
2023-04-08T11:51:26.285Z,30.48
2023-04-08T11:52:26.322Z,29.16
2023-04-08T11:53:26.347Z,36.42
2023-04-08T11:54:26.405Z,39.63
2023-04-08T11:55:26.415Z,39.37
2023-04-08T11:56:26.511Z,32.43
2023-04-08T11:57:26.496Z,32.74
2023-04-08T11:58:26.530Z,31.06
2023-04-08T11:59:29.044Z,38.48
2023-04-08T12:00:26.569Z,39.33
2023-04-08T12:01:26.532Z,38.65
2023-04-08T12:02:26.657Z,35.58
2023-04-08T12:03:26.576Z,38.89
2023-04-08T12:04:26.602Z,39.64
2023-04-08T12:05:26.509Z,35.54
2023-04-08T12:06:26.495Z,42.02
2023-04-08T12:07:26.493Z,42.89
2023-04-08T12:08:26.488Z,43.73
2023-04-08T12:09:26.450Z,39.43
2023-04-08T12:10:26.452Z,34.97
2023-04-08T12:11:26.435Z,40.39
2023-04-08T12:12:26.436Z,36.71
2023-04-08T12:13:26.432Z,42.17
2023-04-08T12:14:28.377Z,37.79
2023-04-08T12:15:26.426Z,45.05
2023-04-08T12:17:35.969Z,25.00
2023-04-08T12:18:35.969Z,25.00
2023-04-08T12:19:38.240Z,25.00
2023-04-08T12:20:36.122Z,25.00
2023-04-08T12:21:36.192Z,25.00
2023-04-08T12:22:36.188Z,25.00
2023-04-08T12:23:36.220Z,25.00
2023-04-08T12:24:36.251Z,25.00
2023-04-08T12:25:36.303Z,27.51
2023-04-08T12:26:36.325Z,38.21
2023-04-08T12:27:36.342Z,37.02
2023-04-08T12:28:36.403Z,30.10
2023-04-08T12:29:36.391Z,38.53
2023-04-08T12:30:36.414Z,41.54
2023-04-08T12:31:36.531Z,30.37
2023-04-08T12:32:36.536Z,27.94
2023-04-08T12:33:36.507Z,36.79
2023-04-08T12:34:36.535Z,36.03
2023-04-08T12:35:36.584Z,33.32
2023-04-08T12:36:36.608Z,34.78
2023-04-08T12:37:36.635Z,37.85
2023-04-08T12:38:36.659Z,38.22
2023-04-08T12:39:36.696Z,37.48